Time;durP1;ratioP1;P1;durP2;ratioP2;P2;SDS_P1;SDS_P2;PMS_P1;PMS_P2;Temp;Humidity;BMP_temperature;BMP_pressure;BME280_temperature;BME280_humidity;BME280_pressure;Samples;Min_cycle;Max_cycle;Signal;HPM_P1;HPM_P2
2023/12/25 00:02:08;;;;;;;10.00;2.22;;;11.00;99.90;;;;;;5062208;28;20055;-68
2023/12/25 00:04:33;;;;;;;16.45;1.80;;;11.00;99.90;;;;;;5062194;28;20017;-68
2023/12/25 00:06:59;;;;;;;13.27;2.05;;;11.00;99.90;;;;;;5060849;28;20044;-67
2023/12/25 00:09:24;;;;;;;13.02;2.00;;;11.00;99.90;;;;;;5060763;28;20115;-69
2023/12/25 00:11:50;;;;;;;11.15;1.90;;;11.00;99.90;;;;;;5061821;28;20036;-69
2023/12/25 00:14:15;;;;;;;17.77;2.75;;;11.00;99.90;;;;;;5062097;28;20021;-71
2023/12/25 00:16:41;;;;;;;10.93;1.95;;;11.00;99.90;;;;;;5062015;28;20025;-69
2023/12/25 00:19:09;;;;;;;14.98;2.28;;;11.10;99.90;;;;;;5061943;28;20024;-70
2023/12/25 00:21:36;;;;;;;10.07;1.98;;;11.10;99.90;;;;;;5060481;28;20025;-68
2023/12/25 00:24:02;;;;;;;16.77;2.38;;;11.10;99.90;;;;;;5061848;28;20021;-69
2023/12/25 00:26:27;;;;;;;12.40;2.60;;;11.10;99.90;;;;;;5061681;28;20066;-67
2023/12/25 00:28:53;;;;;;;13.20;2.20;;;11.10;99.90;;;;;;5059324;28;20029;-71
2023/12/25 00:31:18;;;;;;;7.45;1.88;;;11.10;99.90;;;;;;5059688;28;20025;-70
2023/12/25 00:33:44;;;;;;;11.05;2.13;;;11.10;99.90;;;;;;5060193;28;20478;-72
2023/12/25 00:36:11;;;;;;;6.78;1.90;;;11.10;99.90;;;;;;5060886;28;20032;-71
2023/12/25 00:38:36;;;;;;;8.20;1.85;;;11.10;99.90;;;;;;5061581;28;20051;-69
2023/12/25 00:41:03;;;;;;;8.50;2.00;;;11.10;99.90;;;;;;5059832;28;20021;-69
2023/12/25 00:43:29;;;;;;;12.10;2.22;;;11.10;99.90;;;;;;5061008;28;20021;-66
2023/12/25 00:45:54;;;;;;;10.07;2.33;;;11.10;99.90;;;;;;5061746;28;20029;-70
2023/12/25 00:48:20;;;;;;;9.25;1.83;;;11.10;99.90;;;;;;5061266;28;20036;-69
2023/12/25 00:50:45;;;;;;;14.10;2.25;;;11.10;99.90;;;;;;5061642;28;20025;-68
2023/12/25 00:53:11;;;;;;;10.75;1.98;;;11.10;99.90;;;;;;5061552;28;20048;-68
2023/12/25 00:55:36;;;;;;;9.43;1.60;;;11.20;99.90;;;;;;5061487;28;20086;-70
2023/12/25 00:58:02;;;;;;;14.85;1.80;;;11.20;99.90;;;;;;5061443;28;20028;-69
2023/12/25 01:00:28;;;;;;;13.18;2.63;;;11.20;99.90;;;;;;5061367;28;20094;-68
2023/12/25 01:02:53;;;;;;;11.80;1.77;;;11.20;99.90;;;;;;5060456;28;20067;-73
2023/12/25 01:05:19;;;;;;;13.07;2.03;;;11.10;99.90;;;;;;5061418;28;20040;-69
2023/12/25 01:07:44;;;;;;;14.02;2.15;;;11.20;99.90;;;;;;5061377;28;20083;-67
2023/12/25 01:10:10;;;;;;;12.80;2.38;;;11.20;99.90;;;;;;5061333;28;20088;-69
2023/12/25 01:12:35;;;;;;;8.07;1.60;;;11.20;99.90;;;;;;5059774;28;20016;-69
2023/12/25 01:15:01;;;;;;;5.55;1.60;;;11.20;99.90;;;;;;5061365;28;20053;-72
2023/12/25 01:17:26;;;;;;;11.93;2.20;;;11.10;99.90;;;;;;5060647;28;20417;-67
2023/12/25 01:19:52;;;;;;;12.07;1.67;;;11.30;99.90;;;;;;5059975;28;20029;-70
2023/12/25 01:22:18;;;;;;;8.40;1.83;;;11.30;99.90;;;;;;5059856;28;20024;-67
2023/12/25 01:24:44;;;;;;;11.63;2.22;;;11.40;99.90;;;;;;5061225;28;20060;-72
2023/12/25 01:27:10;;;;;;;14.60;2.15;;;11.30;99.90;;;;;;5059747;28;20041;-68
2023/12/25 01:29:36;;;;;;;8.18;1.58;;;11.40;99.90;;;;;;5060943;28;20036;-67
2023/12/25 01:32:01;;;;;;;11.82;1.75;;;11.40;99.90;;;;;;5061097;28;20017;-69
2023/12/25 01:34:27;;;;;;;13.10;1.77;;;11.30;99.90;;;;;;5060669;28;20017;-68
2023/12/25 01:36:52;;;;;;;8.30;1.85;;;11.30;99.90;;;;;;5061180;28;20040;-67
2023/12/25 01:39:18;;;;;;;14.15;2.00;;;11.30;99.90;;;;;;5061073;28;20021;-69
2023/12/25 01:41:44;;;;;;;6.00;1.52;;;11.40;99.90;;;;;;5061099;28;20040;-70
2023/12/25 01:44:09;;;;;;;9.57;2.15;;;11.40;99.90;;;;;;5060714;28;20035;-71
2023/12/25 01:46:35;;;;;;;9.60;1.70;;;11.40;99.90;;;;;;5060784;28;20048;-68
2023/12/25 01:49:01;;;;;;;12.82;1.98;;;11.30;99.90;;;;;;5060760;28;20024;-68
2023/12/25 01:51:26;;;;;;;9.43;1.73;;;11.30;99.90;;;;;;5059528;28;20040;-69
2023/12/25 01:53:53;;;;;;;11.05;2.03;;;11.30;99.90;;;;;;5064610;28;20413;-71
2023/12/25 01:56:19;;;;;;;7.50;1.83;;;11.30;99.90;;;;;;5064883;28;20085;-67
2023/12/25 01:58:44;;;;;;;11.40;1.52;;;11.30;99.90;;;;;;5064864;28;20032;-69
2023/12/25 02:01:10;;;;;;;15.82;1.92;;;11.40;99.90;;;;;;5064836;28;20021;-69
2023/12/25 02:03:36;;;;;;;13.57;2.10;;;11.30;99.90;;;;;;5064383;28;20049;-68
2023/12/25 02:06:02;;;;;;;8.88;1.60;;;11.30;99.90;;;;;;5064561;28;20023;-69
2023/12/25 02:08:31;;;;;;;8.20;1.73;;;11.30;99.90;;;;;;5064388;28;20028;-67
2023/12/25 02:11:02;;;;;;;10.70;1.80;;;11.30;99.90;;;;;;5063976;28;20040;-69
2023/12/25 02:13:28;;;;;;;21.65;2.03;;;11.30;99.90;;;;;;5064212;28;20017;-68
2023/12/25 02:15:54;;;;;;;12.13;1.70;;;11.30;99.90;;;;;;5064515;28;20478;-69
2023/12/25 02:18:21;;;;;;;12.90;2.65;;;11.30;99.90;;;;;;5063997;28;20068;-68
2023/12/25 02:20:47;;;;;;;12.45;1.90;;;11.30;99.90;;;;;;5064358;28;20071;-70
2023/12/25 02:23:18;;;;;;;9.45;1.50;;;11.30;99.90;;;;;;5064357;28;20035;-69
2023/12/25 02:25:55;;;;;;;9.70;2.10;;;11.30;99.90;;;;;;5064202;28;20048;-69
2023/12/25 02:28:22;;;;;;;11.55;2.20;;;11.30;99.90;;;;;;5062563;28;20021;-72
2023/12/25 02:30:47;;;;;;;9.13;1.58;;;11.30;99.90;;;;;;5062890;28;20029;-68
2023/12/25 02:33:13;;;;;;;12.27;1.92;;;11.30;99.90;;;;;;5063850;28;20033;-67
2023/12/25 02:35:39;;;;;;;12.65;1.98;;;11.30;99.90;;;;;;5061198;28;20044;-69
2023/12/25 02:38:04;;;;;;;9.25;1.85;;;11.30;99.90;;;;;;5063449;28;20047;-69
2023/12/25 02:40:30;;;;;;;10.38;1.80;;;11.30;99.90;;;;;;5063856;28;20024;-69
2023/12/25 02:42:55;;;;;;;7.32;1.35;;;11.20;99.90;;;;;;5062536;28;20021;-70
2023/12/25 02:45:21;;;;;;;14.05;1.77;;;11.20;99.90;;;;;;5063595;28;20096;-70
2023/12/25 02:47:46;;;;;;;11.57;1.88;;;11.20;99.90;;;;;;5063684;28;20401;-68
2023/12/25 02:50:12;;;;;;;9.65;1.70;;;11.20;99.90;;;;;;5063722;28;20701;-74
2023/12/25 02:52:39;;;;;;;10.02;1.83;;;11.20;99.90;;;;;;5063508;28;20025;-69
2023/12/25 02:55:05;;;;;;;6.32;2.00;;;11.20;99.90;;;;;;5063668;28;20685;-69
2023/12/25 02:57:30;;;;;;;6.65;1.42;;;11.10;99.90;;;;;;5063062;28;20025;-69
2023/12/25 02:59:56;;;;;;;8.75;1.60;;;11.10;99.90;;;;;;5063566;28;20025;-71
2023/12/25 03:02:22;;;;;;;6.68;1.30;;;11.10;99.90;;;;;;5061682;28;20056;-69
2023/12/25 03:04:48;;;;;;;7.38;1.35;;;11.10;99.90;;;;;;5063312;28;20026;-69
2023/12/25 03:07:14;;;;;;;9.73;1.52;;;11.10;99.90;;;;;;5063559;28;20043;-71
2023/12/25 03:09:39;;;;;;;13.13;1.88;;;11.00;99.90;;;;;;5063149;28;20041;-70
2023/12/25 03:12:05;;;;;;;11.68;1.70;;;11.00;99.90;;;;;;5063289;28;20083;-69
2023/12/25 03:14:30;;;;;;;7.65;1.67;;;11.00;99.90;;;;;;5063049;28;20520;-73
2023/12/25 03:16:56;;;;;;;9.20;1.60;;;11.00;99.90;;;;;;5061800;28;20060;-70
2023/12/25 03:19:22;;;;;;;14.82;2.08;;;11.00;99.90;;;;;;5062786;28;20489;-72
2023/12/25 03:21:47;;;;;;;8.90;1.55;;;10.90;99.90;;;;;;5063101;28;20061;-69
2023/12/25 03:24:13;;;;;;;9.57;1.52;;;10.90;99.90;;;;;;5063238;28;20032;-68
2023/12/25 03:26:38;;;;;;;12.27;1.85;;;10.90;99.90;;;;;;5063000;28;20029;-70
2023/12/25 03:29:04;;;;;;;9.88;2.05;;;10.90;99.90;;;;;;5062913;28;20036;-71
2023/12/25 03:31:30;;;;;;;10.60;1.73;;;10.90;99.90;;;;;;5062821;28;20032;-69
2023/12/25 03:33:58;;;;;;;12.85;1.85;;;10.90;99.90;;;;;;5063077;28;20033;-70
2023/12/25 03:36:24;;;;;;;10.45;1.80;;;10.80;99.90;;;;;;5062658;28;20486;-70
2023/12/25 03:38:50;;;;;;;16.58;2.05;;;10.80;99.90;;;;;;5062917;28;20025;-72
2023/12/25 03:41:15;;;;;;;11.48;1.90;;;10.80;99.90;;;;;;5062780;28;20033;-72
2023/12/25 03:43:41;;;;;;;14.00;1.83;;;10.80;99.90;;;;;;5062818;28;20033;-72
2023/12/25 03:46:06;;;;;;;10.55;1.50;;;10.80;99.90;;;;;;5062728;28;20025;-67
2023/12/25 03:48:32;;;;;;;12.43;1.90;;;10.70;99.90;;;;;;5061832;28;20048;-68
2023/12/25 03:50:58;;;;;;;9.88;1.90;;;10.70;99.90;;;;;;5062719;28;20025;-69
2023/12/25 03:53:24;;;;;;;9.60;1.52;;;10.70;99.90;;;;;;5062209;28;20105;-69
2023/12/25 03:55:49;;;;;;;11.35;1.63;;;10.70;99.90;;;;;;5062674;28;20060;-71
2023/12/25 03:58:15;;;;;;;8.48;1.35;;;10.70;99.90;;;;;;5062632;28;20025;-70
2023/12/25 04:00:41;;;;;;;12.38;1.58;;;10.60;99.90;;;;;;5062505;28;20115;-67
2023/12/25 04:03:06;;;;;;;10.13;1.48;;;10.70;99.90;;;;;;5060720;28;20060;-71
2023/12/25 04:05:32;;;;;;;17.25;2.30;;;10.60;99.90;;;;;;5061022;28;20033;-72
2023/12/25 04:07:57;;;;;;;9.52;1.55;;;10.60;99.90;;;;;;5060688;28;20094;-73
2023/12/25 04:10:24;;;;;;;15.15;2.15;;;10.60;99.90;;;;;;5062149;28;20053;-71
2023/12/25 04:12:49;;;;;;;10.80;1.65;;;10.50;99.90;;;;;;5060910;28;20064;-73
2023/12/25 04:15:15;;;;;;;9.65;1.75;;;10.50;99.90;;;;;;5061562;28;20031;-69
2023/12/25 04:17:41;;;;;;;12.63;1.98;;;10.50;99.90;;;;;;5061946;28;20025;-71
2023/12/25 04:20:07;;;;;;;10.27;1.80;;;10.50;99.90;;;;;;5062049;28;20103;-70
2023/12/25 04:22:33;;;;;;;11.73;1.85;;;10.50;99.90;;;;;;5060578;28;20027;-71
2023/12/25 04:24:58;;;;;;;7.95;1.55;;;10.50;99.90;;;;;;5062022;28;20076;-71
2023/12/25 04:27:25;;;;;;;17.60;2.15;;;10.50;99.90;;;;;;5061725;28;20037;-69
2023/12/25 04:29:50;;;;;;;15.32;1.90;;;10.50;99.90;;;;;;5061796;28;20017;-70
2023/12/25 04:32:16;;;;;;;14.70;2.35;;;10.40;99.90;;;;;;5061821;28;20090;-70
2023/12/25 04:34:42;;;;;;;8.82;1.77;;;10.40;99.90;;;;;;5061741;28;20040;-69
2023/12/25 04:37:07;;;;;;;14.95;1.65;;;10.30;99.90;;;;;;5061713;28;20056;-69
2023/12/25 04:39:33;;;;;;;13.15;1.60;;;10.30;99.90;;;;;;5061481;28;20017;-69
2023/12/25 04:41:59;;;;;;;9.43;2.13;;;10.30;99.90;;;;;;5061466;28;20028;-68
2023/12/25 04:44:25;;;;;;;11.07;1.48;;;10.30;99.90;;;;;;5060217;28;20025;-69
2023/12/25 04:46:50;;;;;;;6.32;1.35;;;10.20;99.90;;;;;;5061519;28;20520;-71
2023/12/25 04:49:16;;;;;;;16.70;1.85;;;10.20;99.90;;;;;;5061583;28;20090;-72
2023/12/25 04:51:41;;;;;;;13.30;2.00;;;10.20;99.90;;;;;;5061007;28;20029;-71
2023/12/25 04:54:07;;;;;;;13.52;2.33;;;10.20;99.90;;;;;;5061327;28;20112;-68
2023/12/25 04:56:33;;;;;;;13.38;2.00;;;10.20;99.90;;;;;;5058039;28;20405;-70
2023/12/25 04:58:58;;;;;;;12.80;1.90;;;10.20;99.90;;;;;;5058170;28;20082;-69
2023/12/25 05:01:24;;;;;;;8.07;1.50;;;10.20;99.90;;;;;;5061018;28;20036;-71
2023/12/25 05:03:49;;;;;;;11.13;2.30;;;10.20;99.90;;;;;;5059832;28;20140;-68
2023/12/25 05:06:15;;;;;;;10.73;1.77;;;10.10;99.90;;;;;;5058487;28;20020;-67
2023/12/25 05:08:41;;;;;;;14.95;2.03;;;10.20;99.90;;;;;;5059176;28;20099;-70
2023/12/25 05:11:06;;;;;;;11.13;1.75;;;10.20;99.90;;;;;;5061204;28;20468;-71
2023/12/25 05:13:32;;;;;;;11.77;1.83;;;10.20;99.90;;;;;;5060932;28;20040;-69
2023/12/25 05:15:57;;;;;;;10.98;2.03;;;10.20;99.90;;;;;;5060671;28;20033;-71
2023/12/25 05:18:23;;;;;;;15.48;2.10;;;10.20;99.90;;;;;;5061173;28;20024;-72
2023/12/25 05:20:48;;;;;;;10.77;2.35;;;10.20;99.90;;;;;;5061107;28;20081;-70
2023/12/25 05:23:14;;;;;;;17.05;2.38;;;10.20;99.90;;;;;;5061332;28;20029;-69
2023/12/25 05:25:39;;;;;;;11.85;2.03;;;10.20;99.90;;;;;;5059796;28;20021;-68
2023/12/25 05:28:05;;;;;;;21.70;2.63;;;10.20;99.90;;;;;;5062200;28;20037;-69
2023/12/25 05:30:31;;;;;;;12.25;1.95;;;10.20;99.90;;;;;;5065257;28;20025;-69
2023/12/25 05:32:56;;;;;;;11.35;2.08;;;10.20;99.90;;;;;;5065029;28;20028;-69
2023/12/25 05:35:23;;;;;;;10.50;1.95;;;10.20;99.90;;;;;;5065152;28;20021;-70
2023/12/25 05:37:49;;;;;;;11.93;1.70;;;10.20;99.90;;;;;;5064818;28;20028;-67
2023/12/25 05:40:15;;;;;;;17.95;2.00;;;10.20;99.90;;;;;;5065070;28;20032;-71
2023/12/25 05:42:41;;;;;;;7.13;1.65;;;10.20;99.90;;;;;;5063136;28;20456;-72
2023/12/25 05:45:07;;;;;;;13.63;2.00;;;10.20;99.90;;;;;;5061239;28;20029;-69
2023/12/25 05:47:33;;;;;;;10.52;1.90;;;10.20;99.90;;;;;;5064550;28;20032;-71
2023/12/25 05:49:59;;;;;;;14.25;1.88;;;10.10;99.90;;;;;;5064746;28;20388;-67
2023/12/25 05:52:24;;;;;;;12.60;2.38;;;10.10;99.90;;;;;;5064756;28;20100;-70
2023/12/25 05:54:50;;;;;;;10.70;1.90;;;10.10;99.90;;;;;;5063616;28;20025;-70
2023/12/25 05:57:16;;;;;;;11.60;2.03;;;10.10;99.90;;;;;;5064903;28;20021;-71
2023/12/25 05:59:41;;;;;;;20.02;1.83;;;10.10;99.90;;;;;;5062693;28;20028;-71
2023/12/25 06:02:08;;;;;;;14.60;2.05;;;10.20;99.90;;;;;;5061628;28;20385;-69
2023/12/25 06:04:33;;;;;;;19.45;2.28;;;10.10;99.90;;;;;;5064630;28;20461;-71
2023/12/25 06:06:59;;;;;;;14.27;2.00;;;10.10;99.90;;;;;;5064504;28;20047;-70
2023/12/25 06:09:25;;;;;;;12.02;1.80;;;10.00;99.90;;;;;;5064445;28;20033;-73
2023/12/25 06:11:51;;;;;;;14.20;2.25;;;10.10;99.90;;;;;;5061888;28;20020;-68
2023/12/25 06:14:17;;;;;;;13.40;1.90;;;10.00;99.90;;;;;;5064475;28;20021;-72
2023/12/25 06:16:42;;;;;;;15.48;1.85;;;10.00;99.90;;;;;;5061593;28;20025;-71
2023/12/25 06:19:08;;;;;;;11.48;1.90;;;10.00;99.90;;;;;;5064240;28;20025;-70
2023/12/25 06:21:33;;;;;;;9.60;1.73;;;10.00;99.90;;;;;;5064230;28;20032;-67
2023/12/25 06:23:59;;;;;;;11.43;2.03;;;9.90;99.90;;;;;;5064239;28;20060;-69
2023/12/25 06:26:24;;;;;;;9.50;1.90;;;9.90;99.90;;;;;;5062814;28;20044;-69
2023/12/25 06:28:50;;;;;;;14.40;1.98;;;9.90;99.90;;;;;;5064072;28;20036;-69
2023/12/25 06:31:16;;;;;;;11.10;1.92;;;9.90;99.90;;;;;;5064334;28;20021;-69
2023/12/25 06:33:42;;;;;;;17.23;2.20;;;9.90;99.90;;;;;;5063901;28;20043;-67
2023/12/25 06:36:07;;;;;;;13.93;2.45;;;9.90;99.90;;;;;;5062712;28;20045;-71
2023/12/25 06:38:33;;;;;;;11.70;2.00;;;9.90;99.90;;;;;;5060188;28;20029;-71
2023/12/25 06:41:00;;;;;;;22.27;2.25;;;9.90;99.90;;;;;;5061606;28;20049;-69
2023/12/25 06:43:26;;;;;;;15.35;1.80;;;9.90;99.90;;;;;;5063495;28;20036;-69
2023/12/25 06:45:51;;;;;;;15.05;1.90;;;10.00;99.90;;;;;;5062407;28;20029;-72
2023/12/25 06:48:17;;;;;;;15.90;2.00;;;10.00;99.90;;;;;;5063159;28;20037;-70
2023/12/25 06:50:42;;;;;;;8.55;1.73;;;9.90;99.90;;;;;;5063890;28;20602;-69
2023/12/25 06:53:08;;;;;;;15.93;2.13;;;9.90;99.90;;;;;;5062381;28;20565;-70
2023/12/25 06:55:34;;;;;;;12.85;1.80;;;10.00;99.90;;;;;;5063566;28;20021;-71
2023/12/25 06:57:59;;;;;;;8.90;1.48;;;10.00;99.90;;;;;;5063568;28;20021;-69
2023/12/25 07:00:25;;;;;;;11.07;1.65;;;9.90;99.90;;;;;;5061582;28;20051;-70
2023/12/25 07:02:54;;;;;;;9.32;1.33;;;9.30;99.90;;;;;;5061444;28;20049;-69
2023/12/25 07:05:20;;;;;;;12.77;1.73;;;8.80;99.90;;;;;;5061612;28;20135;-70
2023/12/25 07:07:49;;;;;;;8.68;1.60;;;8.60;99.90;;;;;;5056023;28;20041;-69
2023/12/25 07:10:14;;;;;;;9.10;1.65;;;8.40;99.90;;;;;;5062187;28;20080;-68
2023/12/25 07:12:40;;;;;;;12.48;2.10;;;8.40;99.90;;;;;;5062012;28;20048;-70
2023/12/25 07:15:06;;;;;;;12.85;1.75;;;8.40;99.90;;;;;;5062672;28;20051;-68
2023/12/25 07:17:32;;;;;;;14.52;2.28;;;8.30;99.90;;;;;;5061304;28;20489;-65
2023/12/25 07:19:58;;;;;;;12.38;1.60;;;8.30;99.90;;;;;;5063255;28;20052;-69
2023/12/25 07:22:24;;;;;;;15.75;2.67;;;8.30;99.90;;;;;;5062951;28;20047;-67
2023/12/25 07:24:50;;;;;;;12.50;1.73;;;8.30;99.90;;;;;;5063164;28;20035;-71
2023/12/25 07:27:16;;;;;;;14.88;1.80;;;8.20;99.90;;;;;;5058438;28;20130;-70
2023/12/25 07:29:41;;;;;;;18.17;2.35;;;8.20;99.90;;;;;;5062752;28;20068;-69
2023/12/25 07:32:07;;;;;;;15.57;2.40;;;8.20;99.90;;;;;;5061796;28;20525;-69
2023/12/25 07:34:33;;;;;;;12.02;2.03;;;8.20;99.90;;;;;;5062566;28;20052;-70
2023/12/25 07:36:59;;;;;;;17.95;1.95;;;8.20;99.90;;;;;;5062725;28;20033;-67
2023/12/25 07:39:24;;;;;;;9.15;2.08;;;8.10;99.90;;;;;;5062237;28;20102;-69
2023/12/25 07:41:50;;;;;;;14.68;1.95;;;8.20;99.90;;;;;;5061306;28;20650;-69
2023/12/25 07:44:16;;;;;;;10.88;1.88;;;8.20;99.90;;;;;;5055959;28;20040;-71
2023/12/25 07:46:41;;;;;;;17.25;2.35;;;8.20;99.90;;;;;;5060327;28;20033;-69
2023/12/25 07:49:07;;;;;;;15.73;2.65;;;8.20;99.90;;;;;;5060126;28;20053;-70
2023/12/25 07:51:33;;;;;;;14.18;2.20;;;8.20;99.90;;;;;;5061538;28;20106;-69
2023/12/25 07:53:58;;;;;;;13.70;2.53;;;8.30;99.90;;;;;;5060430;28;20005;-70
2023/12/25 07:56:25;;;;;;;19.58;3.10;;;8.30;99.90;;;;;;5061679;28;20044;-69
2023/12/25 07:58:50;;;;;;;18.42;2.53;;;8.30;99.90;;;;;;5059827;28;20021;-69
2023/12/25 08:01:19;;;;;;;13.95;2.58;;;8.30;99.90;;;;;;5061859;28;20047;-72
2023/12/25 08:03:45;;;;;;;16.85;2.33;;;8.40;99.90;;;;;;5061115;28;20509;-71
2023/12/25 08:06:11;;;;;;;13.07;2.55;;;8.40;99.90;;;;;;5059642;28;20067;-69
2023/12/25 08:08:37;;;;;;;26.20;3.53;;;8.50;99.90;;;;;;5053835;28;20040;-72
2023/12/25 08:11:03;;;;;;;15.02;2.15;;;8.50;99.90;;;;;;5057342;28;20028;-73
2023/12/25 08:13:28;;;;;;;18.70;2.47;;;8.60;99.90;;;;;;5060872;28;20009;-71
2023/12/25 08:15:54;;;;;;;16.08;2.20;;;8.60;99.90;;;;;;5061081;28;20025;-70
2023/12/25 08:18:20;;;;;;;18.55;2.88;;;8.70;99.90;;;;;;5057824;28;20033;-69
2023/12/25 08:20:49;;;;;;;11.18;2.33;;;8.70;99.90;;;;;;5060426;28;20096;-70
2023/12/25 08:23:16;;;;;;;18.48;2.80;;;8.80;99.90;;;;;;5057413;28;20037;-70
2023/12/25 08:25:41;;;;;;;19.17;2.95;;;8.80;99.90;;;;;;5059635;28;20704;-71
2023/12/25 08:28:07;;;;;;;15.00;3.00;;;8.80;99.90;;;;;;5059411;28;20036;-71
2023/12/25 08:30:32;;;;;;;17.77;2.90;;;8.90;99.90;;;;;;5057298;28;20024;-69
2023/12/25 08:32:58;;;;;;;14.88;2.30;;;8.90;99.90;;;;;;5057631;28;20070;-71
2023/12/25 08:35:24;;;;;;;16.05;2.95;;;8.90;99.90;;;;;;5057436;28;20065;-71
2023/12/25 08:37:49;;;;;;;13.20;2.40;;;8.90;99.90;;;;;;5061683;28;20009;-73
2023/12/25 08:40:15;;;;;;;16.70;2.95;;;8.90;99.90;;;;;;5056462;28;20060;-68
2023/12/25 08:42:41;;;;;;;16.48;2.70;;;8.90;99.90;;;;;;5057327;28;20021;-72
2023/12/25 08:45:07;;;;;;;17.55;3.30;;;9.00;99.90;;;;;;5058184;28;20024;-72
2023/12/25 08:47:33;;;;;;;18.77;3.25;;;9.00;99.90;;;;;;5056469;28;20056;-70
2023/12/25 08:49:59;;;;;;;23.60;3.40;;;9.00;99.90;;;;;;5058475;28;20107;-70
2023/12/25 08:52:25;;;;;;;16.58;2.83;;;9.00;99.90;;;;;;5057154;28;20053;-71
2023/12/25 08:54:50;;;;;;;16.15;2.95;;;9.10;99.90;;;;;;5059033;28;20029;-70
2023/12/25 08:57:16;;;;;;;22.55;2.53;;;9.10;99.90;;;;;;5057477;28;20526;-69
2023/12/25 08:59:42;;;;;;;16.33;2.95;;;9.10;99.90;;;;;;5058045;28;20016;-69
2023/12/25 09:02:08;;;;;;;13.90;3.13;;;9.10;99.90;;;;;;5056547;28;20060;-70
2023/12/25 09:04:33;;;;;;;22.63;3.35;;;9.10;99.90;;;;;;5061166;28;20024;-70
2023/12/25 09:06:59;;;;;;;18.38;2.78;;;9.20;99.90;;;;;;5058450;28;20035;-70
2023/12/25 09:09:25;;;;;;;13.88;2.08;;;9.20;99.90;;;;;;5061072;28;20033;-69
2023/12/25 09:11:51;;;;;;;10.18;2.40;;;9.20;99.90;;;;;;5056352;28;20021;-70
2023/12/25 09:14:17;;;;;;;11.82;2.13;;;9.30;99.90;;;;;;5058155;28;20413;-68
2023/12/25 09:16:42;;;;;;;14.55;2.65;;;9.20;99.90;;;;;;5055273;28;20441;-72
2023/12/25 09:19:08;;;;;;;17.52;2.40;;;9.30;99.90;;;;;;5056763;28;20029;-72
2023/12/25 09:21:38;;;;;;;10.65;1.88;;;9.30;99.90;;;;;;5057107;28;20104;-70
2023/12/25 09:24:04;;;;;;;11.60;2.50;;;9.30;99.90;;;;;;5060565;28;20021;-72
2023/12/25 09:26:29;;;;;;;14.85;2.65;;;9.30;99.90;;;;;;5058070;28;20063;-70
2023/12/25 09:28:55;;;;;;;13.80;2.03;;;9.40;99.90;;;;;;5056329;28;20041;-68
2023/12/25 09:31:20;;;;;;;11.75;2.60;;;9.40;99.90;;;;;;5058316;28;20096;-70
2023/12/25 09:33:46;;;;;;;12.45;2.10;;;9.40;99.90;;;;;;5054608;28;20025;-70
2023/12/25 09:36:11;;;;;;;15.32;2.08;;;9.40;99.90;;;;;;5060815;28;20029;-69
2023/12/25 09:38:37;;;;;;;9.73;1.85;;;9.40;99.90;;;;;;5056243;28;20029;-69
2023/12/25 09:41:10;;;;;;;25.40;3.30;;;9.50;99.90;;;;;;5053352;28;20041;-70
2023/12/25 09:43:38;;;;;;;15.07;2.35;;;9.50;99.90;;;;;;5057092;28;20021;-72
2023/12/25 09:46:04;;;;;;;13.07;1.70;;;9.60;99.90;;;;;;5058093;28;20092;-71
2023/12/25 09:48:31;;;;;;;13.40;1.90;;;9.50;99.90;;;;;;5055120;28;20091;-69
2023/12/25 09:50:58;;;;;;;14.32;1.98;;;9.60;99.90;;;;;;5058642;28;20082;-70
2023/12/25 09:53:23;;;;;;;15.02;1.80;;;9.60;99.90;;;;;;5060959;28;20020;-71
2023/12/25 09:55:50;;;;;;;10.70;2.08;;;9.70;99.90;;;;;;5059714;28;20033;-70
2023/12/25 09:58:16;;;;;;;12.15;2.05;;;9.80;99.90;;;;;;5059195;28;20050;-71
2023/12/25 10:00:42;;;;;;;18.83;2.10;;;10.00;99.90;;;;;;5058411;28;20098;-70
2023/12/25 10:03:09;;;;;;;9.65;1.67;;;10.30;99.90;;;;;;5054071;28;20052;-71
2023/12/25 10:05:35;;;;;;;7.05;1.90;;;10.50;99.90;;;;;;5059085;28;20021;-70
2023/12/25 10:08:00;;;;;;;14.02;2.00;;;10.60;99.90;;;;;;5058928;28;20083;-69
2023/12/25 10:10:29;;;;;;;16.88;1.80;;;10.60;99.90;;;;;;5060456;28;20425;-70
2023/12/25 10:12:58;;;;;;;10.98;1.58;;;10.60;99.90;;;;;;5059193;28;20021;-68
2023/12/25 10:15:23;;;;;;;9.00;1.80;;;10.80;99.90;;;;;;5061436;28;20504;-70
2023/12/25 10:18:01;;;;;;;15.35;1.95;;;10.80;99.90;;;;;;5059012;28;20021;-71
2023/12/25 10:20:26;;;;;;;8.00;1.63;;;10.80;99.90;;;;;;5063033;28;20108;-70
2023/12/25 10:22:52;;;;;;;13.25;2.17;;;10.90;99.90;;;;;;5061101;28;20017;-68
2023/12/25 10:25:17;;;;;;;12.77;1.80;;;10.90;99.90;;;;;;5064165;28;20021;-70
2023/12/25 10:27:44;;;;;;;14.82;2.05;;;11.00;99.90;;;;;;5064079;28;20041;-73
2023/12/25 10:30:25;;;;;;;9.18;1.90;;;11.00;99.90;;;;;;5062184;28;20060;-72
2023/12/25 10:33:13;;;;;;;23.10;2.75;;;11.00;99.90;;;;;;5061065;28;20024;-72
2023/12/25 10:35:39;;;;;;;12.13;2.20;;;11.10;99.90;;;;;;5061246;28;20462;-70
2023/12/25 10:38:06;;;;;;;12.30;1.95;;;11.20;99.90;;;;;;5061130;28;20032;-71
2023/12/25 10:40:32;;;;;;;13.05;2.15;;;11.10;99.90;;;;;;5060394;28;20064;-69
2023/12/25 10:42:58;;;;;;;11.60;1.80;;;10.90;99.90;;;;;;5058019;28;20029;-72
2023/12/25 10:45:28;;;;;;;13.88;2.15;;;10.80;99.90;;;;;;5053497;28;20032;-74
2023/12/25 10:47:56;;;;;;;14.77;2.15;;;10.70;99.90;;;;;;5058550;28;20713;-72
2023/12/25 10:50:26;;;;;;;11.65;2.17;;;10.60;99.90;;;;;;5062021;28;20028;-72
2023/12/25 10:52:53;;;;;;;14.20;2.30;;;10.50;99.90;;;;;;5058405;28;20055;-71
2023/12/25 10:55:38;;;;;;;13.35;2.38;;;10.30;99.90;;;;;;5056882;28;20029;-71
2023/12/25 10:58:07;;;;;;;11.45;2.30;;;10.20;99.90;;;;;;5060772;28;20036;-71
2023/12/25 11:00:46;;;;;;;16.58;2.25;;;10.20;99.90;;;;;;5062926;28;20078;-71
2023/12/25 11:03:14;;;;;;;15.80;2.90;;;10.30;99.90;;;;;;5062116;28;20127;-69
2023/12/25 11:05:40;;;;;;;16.25;2.05;;;10.30;99.90;;;;;;5060683;28;20021;-71
2023/12/25 11:08:06;;;;;;;17.05;2.38;;;10.20;99.90;;;;;;5061676;28;20059;-69
2023/12/25 11:10:32;;;;;;;16.55;2.50;;;10.50;99.90;;;;;;5063151;28;20017;-69
2023/12/25 11:12:58;;;;;;;17.30;2.30;;;10.50;99.90;;;;;;5060478;28;20041;-69
2023/12/25 11:15:24;;;;;;;16.80;2.22;;;10.70;99.90;;;;;;5063019;28;20044;-70
2023/12/25 11:17:50;;;;;;;15.68;2.25;;;11.00;99.90;;;;;;5058541;28;20035;-72
2023/12/25 11:20:16;;;;;;;17.33;2.33;;;11.10;99.90;;;;;;5062014;28;20107;-71
2023/12/25 11:22:46;;;;;;;13.98;2.47;;;11.40;99.90;;;;;;5061765;28;20067;-70
2023/12/25 11:25:17;;;;;;;15.52;2.58;;;11.80;99.90;;;;;;5061793;28;20470;-71
2023/12/25 11:27:43;;;;;;;18.30;2.80;;;12.10;99.90;;;;;;5062763;28;20028;-70
2023/12/25 11:30:12;;;;;;;18.60;2.40;;;12.30;99.90;;;;;;5062476;28;20037;-69
2023/12/25 11:32:45;;;;;;;16.50;2.40;;;12.10;99.90;;;;;;5061085;28;20083;-70
2023/12/25 11:35:12;;;;;;;15.02;2.50;;;12.00;99.90;;;;;;5062924;28;20892;-72
2023/12/25 11:37:38;;;;;;;15.55;2.47;;;11.80;99.90;;;;;;5060356;28;20021;-70
2023/12/25 11:40:05;;;;;;;19.45;2.70;;;11.90;99.90;;;;;;5062826;28;20021;-72
2023/12/25 11:42:32;;;;;;;14.85;2.20;;;11.70;99.90;;;;;;5062289;28;20543;-69
2023/12/25 11:45:03;;;;;;;14.07;2.47;;;11.70;99.90;;;;;;5062679;28;20032;-72
2023/12/25 11:47:43;;;;;;;14.30;2.67;;;11.80;99.90;;;;;;5061221;28;20028;-70
2023/12/25 11:50:12;;;;;;;22.05;2.33;;;11.80;99.90;;;;;;5061128;28;20017;-70
2023/12/25 11:52:46;;;;;;;15.68;2.55;;;12.00;99.90;;;;;;5062240;28;20056;-67
2023/12/25 11:55:30;;;;;;;21.25;2.63;;;12.20;99.90;;;;;;5062249;28;20033;-69
2023/12/25 11:57:56;;;;;;;16.88;2.60;;;12.30;99.90;;;;;;5060156;28;20037;-72
2023/12/25 12:00:25;;;;;;;14.98;3.08;;;12.30;99.90;;;;;;5060894;28;20025;-70
2023/12/25 12:02:50;;;;;;;16.70;2.35;;;12.20;99.90;;;;;;5062017;28;20048;-70
2023/12/25 12:05:16;;;;;;;17.83;3.10;;;12.60;99.90;;;;;;5062528;28;20032;-70
2023/12/25 12:07:45;;;;;;;16.38;2.35;;;13.00;99.90;;;;;;5062240;28;20509;-71
2023/12/25 12:10:12;;;;;;;18.90;2.72;;;13.10;99.90;;;;;;5061582;28;20059;-70
2023/12/25 12:12:38;;;;;;;14.88;3.13;;;13.10;99.90;;;;;;5060110;28;20078;-69
2023/12/25 12:15:05;;;;;;;12.60;2.13;;;13.00;99.90;;;;;;5062011;28;20060;-70
2023/12/25 12:17:32;;;;;;;16.95;2.20;;;13.30;99.90;;;;;;5061633;28;20021;-70
2023/12/25 12:19:58;;;;;;;18.48;3.08;;;13.70;99.90;;;;;;5061733;28;20033;-71
2023/12/25 12:22:26;;;;;;;13.93;2.25;;;13.90;99.90;;;;;;5056243;28;20100;-71
2023/12/25 12:24:52;;;;;;;12.95;2.15;;;14.20;99.90;;;;;;5056213;28;20100;-69
2023/12/25 12:27:19;;;;;;;10.23;2.30;;;14.50;99.90;;;;;;5059653;28;20152;-72
2023/12/25 12:29:50;;;;;;;14.27;2.38;;;14.80;99.90;;;;;;5060643;28;20021;-70
2023/12/25 12:32:19;;;;;;;12.23;2.22;;;14.90;99.90;;;;;;5060315;28;20359;-67
2023/12/25 12:34:45;;;;;;;12.10;2.15;;;14.30;99.90;;;;;;5060324;28;20017;-68
2023/12/25 12:37:11;;;;;;;10.77;2.25;;;13.70;99.90;;;;;;5060911;28;20021;-68